createdAt,value
2023-04-23T00:00:31.307Z,35.13
2023-04-23T00:01:05.745Z,37.78
2023-04-23T00:01:41.932Z,35.47
2023-04-23T00:02:17.730Z,35.08
2023-04-23T00:02:53.940Z,37.22
2023-04-23T00:03:29.259Z,36.22
2023-04-23T00:04:05.124Z,40.78
2023-04-23T00:04:40.669Z,29.23
2023-04-23T00:05:14.933Z,38.25
2023-04-23T00:05:51.664Z,38.58
2023-04-23T00:06:26.821Z,33.00
2023-04-23T00:07:01.189Z,38.20
2023-04-23T00:07:36.274Z,33.03
2023-04-23T00:08:11.197Z,37.53
2023-04-23T00:08:45.539Z,37.97
2023-04-23T00:09:21.109Z,41.13
2023-04-23T00:09:58.453Z,47.67
2023-04-23T00:10:33.198Z,36.92
2023-04-23T00:11:08.165Z,37.88
2023-04-23T00:11:43.161Z,37.63
2023-04-23T00:12:17.453Z,29.23
2023-04-23T00:12:58.056Z,42.67
2023-04-23T00:13:33.651Z,33.78
2023-04-23T00:14:06.999Z,42.92
2023-04-23T00:14:42.788Z,34.78
2023-04-23T00:15:17.728Z,43.25
2023-04-23T00:15:53.791Z,36.40
2023-04-23T00:16:30.106Z,45.33
2023-04-23T00:17:05.067Z,34.65
2023-04-23T00:17:40.224Z,35.13
2023-04-23T00:18:14.331Z,38.15
2023-04-23T00:18:48.055Z,28.98
2023-04-23T00:19:22.739Z,40.70
2023-04-23T00:19:56.389Z,29.77
2023-04-23T00:20:29.922Z,40.90
2023-04-23T00:21:05.469Z,44.75
2023-04-23T00:21:38.594Z,29.52
2023-04-23T00:22:11.809Z,34.63
2023-04-23T00:22:47.877Z,34.35
2023-04-23T00:23:23.765Z,42.03
2023-04-23T00:23:58.002Z,43.35
2023-04-23T00:24:35.031Z,28.15
2023-04-23T00:25:09.705Z,33.72
2023-04-23T00:25:43.251Z,46.30
2023-04-23T00:26:19.147Z,33.13
2023-04-23T00:26:54.430Z,54.28
2023-04-23T00:27:29.263Z,36.13
2023-04-23T00:28:03.425Z,26.77
2023-04-23T00:28:36.883Z,36.95
2023-04-23T00:29:11.099Z,41.03
2023-04-23T00:29:46.894Z,34.00
2023-04-23T00:30:21.756Z,36.15
2023-04-23T00:30:57.491Z,51.83
2023-04-23T00:31:32.195Z,41.80
2023-04-23T00:32:06.481Z,42.28
2023-04-23T00:32:39.913Z,42.10
2023-04-23T00:33:15.250Z,32.80
2023-04-23T00:33:49.556Z,50.53
2023-04-23T00:34:23.918Z,32.47
2023-04-23T00:34:58.717Z,33.20
2023-04-23T00:35:32.508Z,34.55
2023-04-23T00:36:07.737Z,43.55
2023-04-23T00:36:42.518Z,40.55
2023-04-23T00:37:16.539Z,45.78
2023-04-23T00:37:51.234Z,31.52
2023-04-23T00:38:26.753Z,33.25
2023-04-23T00:39:00.955Z,45.22
2023-04-23T00:39:36.525Z,41.25
2023-04-23T00:40:11.780Z,32.60
2023-04-23T00:40:45.562Z,36.83
2023-04-23T00:41:21.977Z,35.63
2023-04-23T00:41:57.924Z,35.20
2023-04-23T00:42:31.817Z,37.70
2023-04-23T00:43:05.290Z,47.28
2023-04-23T00:43:41.971Z,32.20
2023-04-23T00:44:15.792Z,30.65
2023-04-23T00:44:49.876Z,32.08
2023-04-23T00:45:23.723Z,37.00
2023-04-23T00:46:00.394Z,37.95
2023-04-23T00:46:33.982Z,64.80
2023-04-23T00:47:08.091Z,32.35
2023-04-23T00:47:42.630Z,42.72
2023-04-23T00:48:16.424Z,31.95
2023-04-23T00:48:50.410Z,30.55
2023-04-23T00:49:25.677Z,30.38
2023-04-23T00:50:01.075Z,41.47
2023-04-23T00:50:36.020Z,28.85
2023-04-23T00:51:14.160Z,38.75
2023-04-23T00:51:48.340Z,37.53
2023-04-23T00:52:22.192Z,40.95
2023-04-23T00:52:58.314Z,47.30
2023-04-23T00:53:32.512Z,43.25
2023-04-23T00:54:07.944Z,36.70
2023-04-23T00:54:43.986Z,38.17
2023-04-23T00:55:18.192Z,40.53
2023-04-23T00:55:52.146Z,33.90
2023-04-23T00:56:27.894Z,44.90
2023-04-23T00:57:01.532Z,32.30
2023-04-23T00:57:36.057Z,29.75
2023-04-23T00:58:11.020Z,36.85
2023-04-23T00:58:44.619Z,33.97
2023-04-23T00:59:18.327Z,39.10
2023-04-23T00:59:52.955Z,32.88
2023-04-23T01:00:27.101Z,40.88
2023-04-23T01:01:03.480Z,29.20
2023-04-23T01:01:38.319Z,45.50
2023-04-23T01:02:11.884Z,35.60
2023-04-23T01:02:47.910Z,35.05
2023-04-23T01:03:24.971Z,30.65
2023-04-23T01:03:59.963Z,32.13
2023-04-23T01:04:33.970Z,40.95
2023-04-23T01:05:10.250Z,37.70
2023-04-23T01:05:45.902Z,33.00
2023-04-23T01:06:20.169Z,40.67
2023-04-23T01:06:53.881Z,30.35
2023-04-23T01:07:30.209Z,39.17
2023-04-23T01:08:04.260Z,41.40
2023-04-23T01:08:41.361Z,44.22
2023-04-23T01:09:16.111Z,37.03
2023-04-23T01:09:52.351Z,34.70
2023-04-23T01:10:26.860Z,33.90
2023-04-23T01:11:00.784Z,39.10
2023-04-23T01:11:36.242Z,40.22
2023-04-23T01:12:10.003Z,35.78
2023-04-23T01:12:43.213Z,47.20
2023-04-23T01:13:18.321Z,37.72
2023-04-23T01:13:51.970Z,39.58
2023-04-23T01:14:25.147Z,42.50
2023-04-23T01:15:00.033Z,35.10
2023-04-23T01:15:35.793Z,39.03
2023-04-23T01:16:12.135Z,33.15
2023-04-23T01:16:45.738Z,32.22
2023-04-23T01:17:18.534Z,47.10
2023-04-23T01:17:54.675Z,32.70
2023-04-23T01:18:29.750Z,35.78
2023-04-23T01:19:02.559Z,41.00
2023-04-23T01:19:38.273Z,27.38
2023-04-23T01:20:13.774Z,32.80
2023-04-23T01:20:49.802Z,34.25
2023-04-23T01:21:23.894Z,42.92
2023-04-23T01:22:01.704Z,40.63
2023-04-23T01:22:37.690Z,29.80
2023-04-23T01:23:12.441Z,36.88
2023-04-23T01:23:45.685Z,41.67
2023-04-23T01:24:18.733Z,31.25
2023-04-23T01:24:54.076Z,38.08
2023-04-23T01:25:27.750Z,36.05
2023-04-23T01:26:01.108Z,27.95
2023-04-23T01:26:35.679Z,33.17
2023-04-23T01:27:10.011Z,31.75
2023-04-23T01:27:44.516Z,34.08
2023-04-23T01:28:19.439Z,38.03
2023-04-23T01:28:55.072Z,34.40
2023-04-23T01:29:29.089Z,32.42
2023-04-23T01:30:06.823Z,35.28
2023-04-23T01:30:42.253Z,23.65
2023-04-23T01:31:15.250Z,34.92
2023-04-23T01:31:50.436Z,40.50
2023-04-23T01:32:24.974Z,32.30
2023-04-23T01:32:59.465Z,35.38
2023-04-23T01:33:35.014Z,34.05
2023-04-23T01:34:10.176Z,32.85
2023-04-23T01:34:44.876Z,32.72
2023-04-23T01:35:20.113Z,37.80
2023-04-23T01:35:55.904Z,27.17
2023-04-23T01:36:30.377Z,37.20
2023-04-23T01:37:06.573Z,35.60
2023-04-23T01:37:43.163Z,36.45
2023-04-23T01:38:17.488Z,30.75
2023-04-23T01:38:51.895Z,33.28
2023-04-23T01:39:26.696Z,37.33
2023-04-23T01:40:00.510Z,40.03
2023-04-23T01:40:35.085Z,24.00
2023-04-23T01:41:08.755Z,57.38
2023-04-23T01:41:43.228Z,47.55
2023-04-23T01:42:17.988Z,55.28
2023-04-23T01:42:51.750Z,59.88
2023-04-23T01:43:26.995Z,33.70
2023-04-23T01:44:01.863Z,45.53
2023-04-23T01:44:35.314Z,34.90
2023-04-23T01:45:12.319Z,31.45
2023-04-23T01:45:46.076Z,31.45
2023-04-23T01:46:19.222Z,34.60
2023-04-23T01:46:53.246Z,29.88
2023-04-23T01:47:28.125Z,30.27
2023-04-23T01:48:01.721Z,36.83
2023-04-23T01:48:36.333Z,25.52
2023-04-23T01:49:11.085Z,30.08
2023-04-23T01:49:45.915Z,26.40
2023-04-23T01:50:18.839Z,33.33
2023-04-23T01:50:54.316Z,43.85
2023-04-23T01:51:27.869Z,33.47
2023-04-23T01:52:01.215Z,31.25
2023-04-23T01:52:35.292Z,28.30
2023-04-23T01:53:10.508Z,33.80
2023-04-23T01:53:44.056Z,36.80
2023-04-23T01:54:19.704Z,45.78
2023-04-23T01:54:56.218Z,35.70
2023-04-23T01:55:30.157Z,39.13
2023-04-23T01:56:05.102Z,31.02
2023-04-23T01:56:38.652Z,33.28
2023-04-23T01:57:12.447Z,33.50
2023-04-23T01:57:46.910Z,27.73
2023-04-23T01:58:20.612Z,38.95
2023-04-23T01:58:56.606Z,30.77
2023-04-23T01:59:31.112Z,32.97
2023-04-23T02:00:08.448Z,32.70
2023-04-23T02:00:48.734Z,35.15
2023-04-23T02:01:23.762Z,46.80
2023-04-23T02:01:57.658Z,27.38
2023-04-23T02:02:31.178Z,34.40
2023-04-23T02:03:07.016Z,33.33
2023-04-23T02:03:40.934Z,24.95
2023-04-23T02:04:16.441Z,36.22
2023-04-23T02:04:54.167Z,26.92
2023-04-23T02:05:30.887Z,37.28
2023-04-23T02:06:05.278Z,32.88
2023-04-23T02:06:39.713Z,28.42
2023-04-23T02:07:13.654Z,35.75
2023-04-23T02:07:47.950Z,29.85
2023-04-23T02:08:25.059Z,38.40
2023-04-23T02:08:59.342Z,27.77
2023-04-23T02:09:34.001Z,38.60
2023-04-23T02:10:09.921Z,40.90
2023-04-23T02:10:45.104Z,57.42
2023-04-23T02:11:19.558Z,32.28
2023-04-23T02:11:55.448Z,32.40
2023-04-23T02:12:29.499Z,34.90
2023-04-23T02:13:04.105Z,32.47
2023-04-23T02:13:38.381Z,34.80
2023-04-23T02:14:11.502Z,32.75
2023-04-23T02:14:45.031Z,33.05
2023-04-23T02:15:20.684Z,34.80
2023-04-23T02:15:55.116Z,31.52
2023-04-23T02:16:28.744Z,33.35
2023-04-23T02:17:02.843Z,35.45
2023-04-23T02:17:37.221Z,32.50
2023-04-23T02:18:11.143Z,32.78
2023-04-23T02:18:44.753Z,42.50
2023-04-23T02:19:19.789Z,42.50
2023-04-23T02:19:55.948Z,27.98
2023-04-23T02:20:30.032Z,37.15
2023-04-23T02:21:05.526Z,36.40
2023-04-23T02:21:40.058Z,31.48
2023-04-23T02:22:12.856Z,28.17
2023-04-23T02:22:48.835Z,28.88
2023-04-23T02:23:24.318Z,35.08
2023-04-23T02:23:58.087Z,34.10
2023-04-23T02:24:32.380Z,29.23
2023-04-23T02:25:09.651Z,32.25
2023-04-23T02:25:44.053Z,31.73
2023-04-23T02:26:17.299Z,26.88
2023-04-23T02:26:51.535Z,33.63
2023-04-23T02:27:25.457Z,32.17
2023-04-23T02:28:00.662Z,30.60
2023-04-23T02:28:34.176Z,32.67
2023-04-23T02:29:08.644Z,27.85
2023-04-23T02:29:42.083Z,30.23
2023-04-23T02:30:16.001Z,25.90
2023-04-23T02:30:49.507Z,28.70
2023-04-23T02:31:23.579Z,22.50
2023-04-23T02:32:00.081Z,31.60
2023-04-23T02:32:33.331Z,27.67
2023-04-23T02:33:09.065Z,26.02
2023-04-23T02:33:43.647Z,34.88
2023-04-23T02:34:16.839Z,28.60
2023-04-23T02:34:51.112Z,37.88
2023-04-23T02:35:26.324Z,32.17
2023-04-23T02:36:00.103Z,32.00
2023-04-23T02:36:33.624Z,37.97
2023-04-23T02:37:08.580Z,36.53
2023-04-23T02:37:43.182Z,34.58
2023-04-23T02:38:17.073Z,31.52
2023-04-23T02:38:53.337Z,37.40
2023-04-23T02:39:27.100Z,30.52
2023-04-23T02:39:59.958Z,28.35
2023-04-23T02:40:34.026Z,34.40
2023-04-23T02:41:08.354Z,41.13
2023-04-23T02:41:42.166Z,41.42
2023-04-23T02:42:16.385Z,33.78
2023-04-23T02:42:50.784Z,25.63
2023-04-23T02:43:25.706Z,33.90
2023-04-23T02:44:00.306Z,36.22
2023-04-23T02:44:34.351Z,37.10
2023-04-23T02:45:08.184Z,26.73
2023-04-23T02:45:42.236Z,37.47
2023-04-23T02:46:17.491Z,30.55
2023-04-23T02:46:50.664Z,32.03
2023-04-23T02:47:25.660Z,35.33
2023-04-23T02:47:59.474Z,33.05
2023-04-23T02:48:34.178Z,35.90
2023-04-23T02:49:09.290Z,42.67
2023-04-23T02:49:43.458Z,38.75
2023-04-23T02:50:17.922Z,34.78
2023-04-23T02:50:52.724Z,31.45
2023-04-23T02:51:26.942Z,34.72
2023-04-23T02:52:00.352Z,33.20
2023-04-23T02:52:35.149Z,37.35
2023-04-23T02:53:08.894Z,39.20
2023-04-23T02:53:42.935Z,33.50
2023-04-23T02:54:18.830Z,36.72
2023-04-23T02:54:53.213Z,30.48
2023-04-23T02:55:32.092Z,31.00
2023-04-23T02:56:07.428Z,39.30
2023-04-23T02:56:41.830Z,34.03
2023-04-23T02:57:16.593Z,27.55
2023-04-23T02:57:51.454Z,29.02
2023-04-23T02:58:24.940Z,32.55
2023-04-23T02:59:01.679Z,41.58
2023-04-23T02:59:35.014Z,39.63
2023-04-23T03:00:09.444Z,39.30
2023-04-23T03:00:47.963Z,39.45
2023-04-23T03:01:21.546Z,44.05
2023-04-23T03:01:54.779Z,32.53
2023-04-23T03:02:29.426Z,37.05
2023-04-23T03:03:03.492Z,34.50
2023-04-23T03:03:38.327Z,41.53
2023-04-23T03:04:13.844Z,41.25
2023-04-23T03:04:47.618Z,44.38
2023-04-23T03:05:20.938Z,32.63
2023-04-23T03:05:56.433Z,31.40
2023-04-23T03:06:29.357Z,30.65
2023-04-23T03:07:03.192Z,31.70
2023-04-23T03:07:39.715Z,34.65
2023-04-23T03:08:13.472Z,29.73
2023-04-23T03:08:47.561Z,35.10
2023-04-23T03:09:24.602Z,34.40
2023-04-23T03:09:58.861Z,31.02
2023-04-23T03:10:32.320Z,21.42
2023-04-23T03:11:07.581Z,44.15
2023-04-23T03:11:41.919Z,25.05
2023-04-23T03:12:18.354Z,35.05
2023-04-23T03:12:52.328Z,29.13
2023-04-23T03:13:26.675Z,30.58
2023-04-23T03:14:00.954Z,26.08
2023-04-23T03:14:36.613Z,26.17
2023-04-23T03:15:10.501Z,38.58
2023-04-23T03:15:44.762Z,28.55
2023-04-23T03:16:19.066Z,38.85
2023-04-23T03:16:53.479Z,28.75
2023-04-23T03:17:27.252Z,32.05
2023-04-23T03:18:01.560Z,27.67
2023-04-23T03:18:36.252Z,27.67
2023-04-23T03:19:10.504Z,26.10
2023-04-23T03:19:44.764Z,27.67
2023-04-23T03:20:19.981Z,39.05
2023-04-23T03:20:53.642Z,30.38
2023-04-23T03:21:28.465Z,31.20
2023-04-23T03:22:04.504Z,31.80
2023-04-23T03:22:38.298Z,28.52
2023-04-23T03:23:13.236Z,31.58
2023-04-23T03:23:46.720Z,29.15
2023-04-23T03:24:22.629Z,26.35
2023-04-23T03:24:57.975Z,36.72
2023-04-23T03:25:33.640Z,33.15
2023-04-23T03:26:08.195Z,35.60
2023-04-23T03:26:42.446Z,34.42
2023-04-23T03:27:15.782Z,27.83
2023-04-23T03:27:49.807Z,31.08
2023-04-23T03:28:25.801Z,34.03
2023-04-23T03:29:00.285Z,29.42
2023-04-23T03:29:42.866Z,29.42
2023-04-23T03:30:17.276Z,23.38
2023-04-23T03:30:50.220Z,33.13
2023-04-23T03:31:23.497Z,30.05
2023-04-23T03:31:58.025Z,29.40
2023-04-23T03:32:33.110Z,34.72
2023-04-23T03:33:06.232Z,25.20
2023-04-23T03:33:40.853Z,23.75
2023-04-23T03:34:14.734Z,28.83
2023-04-23T03:34:49.954Z,23.58
2023-04-23T03:35:24.216Z,25.88
2023-04-23T03:36:00.524Z,34.88
2023-04-23T03:36:37.782Z,23.50
2023-04-23T03:37:11.502Z,32.30
2023-04-23T03:37:46.083Z,31.77
2023-04-23T03:38:20.270Z,103.97
2023-04-23T03:38:58.859Z,41.83
2023-04-23T03:39:40.116Z,36.85
2023-04-23T03:40:14.973Z,27.42
2023-04-23T03:40:50.972Z,28.25
2023-04-23T03:41:24.657Z,28.35
2023-04-23T03:41:58.392Z,32.20
2023-04-23T03:42:35.735Z,31.73
2023-04-23T03:43:09.419Z,27.27
2023-04-23T03:44:22.449Z,30.00
2023-04-23T03:44:57.136Z,40.55
2023-04-23T03:45:31.341Z,53.08
2023-04-23T03:46:07.305Z,29.30
2023-04-23T03:46:45.517Z,27.52
2023-04-23T03:47:22.296Z,30.13
2023-04-23T03:47:58.216Z,33.03
2023-04-23T03:48:30.813Z,25.23
2023-04-23T03:49:08.001Z,25.80
2023-04-23T03:49:43.697Z,30.30
2023-04-23T03:50:18.256Z,28.30
2023-04-23T03:50:58.588Z,23.35
2023-04-23T03:51:50.498Z,25.95
2023-04-23T03:52:26.368Z,27.00
2023-04-23T03:53:02.416Z,23.65
2023-04-23T03:53:58.254Z,23.35
2023-04-23T03:54:44.848Z,26.15
2023-04-23T03:55:24.390Z,23.35
2023-04-23T03:55:58.523Z,30.30
2023-04-23T03:56:32.976Z,25.92
2023-04-23T03:57:18.073Z,28.00
2023-04-23T03:58:13.000Z,19.75
2023-04-23T03:58:52.385Z,23.08
2023-04-23T03:59:25.624Z,36.08
2023-04-23T04:00:01.250Z,26.02
2023-04-23T04:00:38.139Z,20.02
2023-04-23T04:01:11.274Z,26.35
2023-04-23T04:01:44.320Z,22.42
2023-04-23T04:02:19.661Z,20.80
2023-04-23T04:02:53.683Z,22.10
2023-04-23T04:03:33.165Z,22.55
2023-04-23T04:04:08.227Z,22.20
2023-04-23T04:04:44.090Z,22.98
2023-04-23T04:05:18.066Z,21.65
2023-04-23T04:05:54.255Z,22.20
2023-04-23T04:06:27.569Z,26.63
2023-04-23T04:07:02.792Z,18.77
2023-04-23T04:07:37.890Z,23.52
2023-04-23T04:08:11.635Z,23.10
2023-04-23T04:08:45.633Z,20.38
2023-04-23T04:09:19.900Z,24.23
2023-04-23T04:09:54.545Z,30.00
2023-04-23T04:10:31.457Z,21.33
2023-04-23T04:11:06.818Z,29.10
2023-04-23T04:11:40.159Z,20.10
2023-04-23T04:12:13.993Z,22.95
2023-04-23T04:12:51.961Z,21.65
2023-04-23T04:13:25.539Z,18.88
2023-04-23T04:13:59.369Z,26.83
2023-04-23T04:14:33.841Z,18.85
2023-04-23T04:15:10.477Z,25.50
2023-04-23T04:15:45.003Z,16.40
2023-04-23T04:16:18.937Z,26.10
2023-04-23T04:16:52.281Z,25.67
2023-04-23T04:17:26.914Z,21.65
2023-04-23T04:18:01.476Z,18.00
2023-04-23T04:18:36.655Z,22.02
2023-04-23T04:19:12.316Z,19.25
2023-04-23T04:19:46.239Z,17.15
2023-04-23T04:20:20.119Z,18.27
2023-04-23T04:20:56.077Z,19.23
2023-04-23T04:21:29.181Z,27.13
2023-04-23T04:22:04.328Z,20.00
2023-04-23T04:22:39.191Z,19.63
2023-04-23T04:23:13.341Z,17.17
2023-04-23T04:23:48.436Z,24.33
2023-04-23T04:24:26.410Z,20.80
2023-04-23T04:25:00.635Z,20.52
2023-04-23T04:25:35.610Z,21.40
2023-04-23T04:26:10.326Z,24.38
2023-04-23T04:26:46.114Z,17.38
2023-04-23T04:27:20.052Z,23.27
2023-04-23T04:27:55.832Z,19.27
2023-04-23T04:28:30.237Z,17.90
2023-04-23T04:29:03.982Z,26.90
2023-04-23T04:29:40.973Z,18.02
2023-04-23T04:30:15.493Z,18.63
2023-04-23T04:30:50.460Z,18.75
2023-04-23T04:31:26.390Z,15.63
2023-04-23T04:32:02.115Z,20.02
2023-04-23T04:32:36.605Z,20.88
2023-04-23T04:33:11.089Z,19.38
2023-04-23T04:33:47.014Z,22.00
2023-04-23T04:34:20.916Z,21.30
2023-04-23T04:34:54.172Z,24.90
2023-04-23T04:35:28.870Z,22.92
2023-04-23T04:36:02.801Z,21.83
2023-04-23T04:36:36.546Z,19.83
2023-04-23T04:37:12.106Z,24.33
2023-04-23T04:37:45.869Z,25.38
2023-04-23T04:38:20.656Z,18.83
2023-04-23T04:38:58.383Z,21.27
2023-04-23T04:39:32.884Z,22.60
2023-04-23T04:40:08.218Z,18.10
2023-04-23T04:40:42.643Z,20.10
2023-04-23T04:41:15.899Z,15.20
2023-04-23T04:41:49.694Z,19.73
2023-04-23T04:42:26.373Z,14.20
2023-04-23T04:43:01.357Z,21.17
2023-04-23T04:43:34.654Z,17.42
2023-04-23T04:44:08.913Z,23.02
2023-04-23T04:44:44.176Z,20.90
2023-04-23T04:45:18.977Z,18.80
2023-04-23T04:45:52.412Z,20.83
2023-04-23T04:46:26.585Z,25.75
2023-04-23T04:47:01.820Z,21.90
2023-04-23T04:47:35.031Z,19.48
2023-04-23T04:48:08.538Z,25.65
2023-04-23T04:48:41.544Z,20.38
2023-04-23T04:49:20.169Z,20.38
2023-04-23T04:49:53.670Z,18.45
2023-04-23T04:50:27.917Z,24.35
2023-04-23T04:51:02.414Z,20.38
2023-04-23T04:51:36.752Z,24.77
2023-04-23T04:52:11.164Z,17.13
2023-04-23T04:52:46.326Z,21.65
2023-04-23T04:53:20.042Z,17.73
2023-04-23T04:53:57.303Z,24.30
2023-04-23T04:54:31.687Z,27.05
2023-04-23T04:55:07.288Z,18.35
2023-04-23T04:55:42.525Z,18.10
2023-04-23T04:56:17.931Z,25.50
2023-04-23T04:56:51.354Z,25.63
2023-04-23T04:57:24.624Z,21.02
2023-04-23T04:57:59.382Z,17.20
2023-04-23T04:58:32.772Z,18.63
2023-04-23T04:59:07.667Z,20.48
2023-04-23T04:59:43.739Z,20.67
2023-04-23T05:00:23.388Z,19.40
2023-04-23T05:00:59.331Z,20.33
2023-04-23T05:01:34.231Z,20.92
2023-04-23T05:02:08.759Z,17.40
2023-04-23T05:02:42.470Z,18.67
2023-04-23T05:03:18.052Z,19.75
2023-04-23T05:03:52.083Z,20.70
2023-04-23T05:04:25.489Z,21.02
2023-04-23T05:05:00.398Z,15.75
2023-04-23T05:05:34.423Z,16.23
2023-04-23T05:06:08.729Z,22.77
2023-04-23T05:06:42.615Z,19.33
2023-04-23T05:07:17.063Z,19.58
2023-04-23T05:07:50.881Z,22.00
2023-04-23T05:08:26.542Z,16.42
2023-04-23T05:09:00.183Z,23.20
2023-04-23T05:09:35.587Z,21.60
2023-04-23T05:10:10.655Z,19.63
2023-04-23T05:10:47.247Z,18.23
2023-04-23T05:11:22.024Z,16.80
2023-04-23T05:11:55.854Z,18.60
2023-04-23T05:12:29.687Z,19.88
2023-04-23T05:13:03.775Z,19.08
2023-04-23T05:13:37.941Z,14.38
2023-04-23T05:14:11.539Z,26.00
2023-04-23T05:14:46.300Z,24.08
2023-04-23T05:15:19.349Z,13.85
2023-04-23T05:15:52.706Z,21.90
2023-04-23T05:16:28.169Z,22.58
2023-04-23T05:17:04.465Z,22.70
2023-04-23T05:17:39.115Z,21.00
2023-04-23T05:18:14.261Z,18.60
2023-04-23T05:18:47.344Z,18.38
2023-04-23T05:19:21.611Z,17.02
2023-04-23T05:19:56.805Z,22.48
2023-04-23T05:20:30.819Z,30.30
2023-04-23T05:21:06.455Z,16.95
2023-04-23T05:21:40.195Z,18.60
2023-04-23T05:22:16.250Z,19.23
2023-04-23T05:22:50.328Z,21.27
2023-04-23T05:23:26.324Z,16.25
2023-04-23T05:24:01.310Z,23.02
2023-04-23T05:24:34.831Z,20.67
2023-04-23T05:25:10.116Z,17.30
2023-04-23T05:25:46.423Z,20.17
2023-04-23T05:26:21.054Z,24.98
2023-04-23T05:26:53.787Z,23.05
2023-04-23T05:27:28.944Z,21.13
2023-04-23T05:28:02.556Z,20.60
2023-04-23T05:28:36.125Z,20.50
2023-04-23T05:29:11.312Z,20.05
2023-04-23T05:29:45.415Z,30.30
2023-04-23T05:30:19.336Z,19.25
2023-04-23T05:30:54.771Z,19.63
2023-04-23T05:31:29.547Z,19.75
2023-04-23T05:32:04.358Z,15.32
2023-04-23T05:32:37.873Z,18.85
2023-04-23T05:33:12.654Z,17.13
2023-04-23T05:33:50.365Z,15.82
2023-04-23T05:34:26.484Z,18.65
2023-04-23T05:35:01.170Z,19.50
2023-04-23T05:35:36.502Z,15.10
2023-04-23T05:36:10.656Z,18.38
2023-04-23T05:36:44.653Z,20.10
2023-04-23T05:37:19.643Z,16.38
2023-04-23T05:37:53.040Z,16.42
2023-04-23T05:38:29.516Z,16.20
2023-04-23T05:39:03.512Z,19.05
2023-04-23T05:39:36.806Z,24.38
2023-04-23T05:40:12.241Z,15.50
2023-04-23T05:40:46.957Z,22.08
2023-04-23T05:41:22.056Z,20.42
2023-04-23T05:41:58.882Z,18.48
2023-04-23T05:42:33.818Z,20.02
2023-04-23T05:43:07.756Z,21.42
2023-04-23T05:43:43.612Z,22.10
2023-04-23T05:44:17.663Z,18.08
2023-04-23T05:44:52.687Z,17.98
2023-04-23T05:45:28.120Z,20.77
2023-04-23T05:46:19.994Z,23.67
2023-04-23T05:46:56.617Z,18.00
2023-04-23T05:47:31.248Z,20.58
2023-04-23T05:48:04.685Z,22.27
2023-04-23T05:48:40.269Z,22.88
2023-04-23T05:49:14.183Z,23.95
2023-04-23T05:49:52.095Z,17.30
2023-04-23T05:50:28.772Z,18.38
2023-04-23T05:51:03.507Z,12.82
2023-04-23T05:51:37.244Z,17.33
2023-04-23T05:52:11.616Z,12.65
2023-04-23T05:52:45.428Z,13.35
2023-04-23T05:53:19.108Z,15.20
2023-04-23T05:53:56.264Z,21.63
2023-04-23T05:54:30.421Z,13.45
2023-04-23T05:55:03.343Z,7.25
2023-04-23T05:55:38.608Z,5.32
2023-04-23T05:56:14.746Z,5.50
2023-04-23T05:56:48.352Z,11.32
2023-04-23T05:57:23.112Z,6.38
2023-04-23T05:57:59.836Z,8.07
2023-04-23T05:58:35.822Z,9.35
2023-04-23T05:59:09.338Z,7.80
2023-04-23T05:59:42.960Z,14.10
2023-04-23T06:00:18.726Z,5.03
2023-04-23T06:00:53.863Z,6.63
2023-04-23T06:01:28.967Z,4.00
2023-04-23T06:02:03.446Z,5.22
2023-04-23T06:02:37.271Z,3.90
2023-04-23T06:03:11.629Z,7.85
2023-04-23T06:03:47.249Z,6.57
2023-04-23T06:04:22.525Z,10.18
2023-04-23T06:04:56.742Z,5.82
2023-04-23T06:05:31.976Z,4.60
2023-04-23T06:06:06.475Z,5.95
2023-04-23T06:06:40.945Z,7.85
2023-04-23T06:07:16.436Z,5.57
2023-04-23T06:07:50.973Z,21.17
2023-04-23T06:08:26.034Z,52.75
2023-04-23T06:09:00.739Z,6.45
2023-04-23T06:09:34.914Z,11.40
2023-04-23T06:10:11.522Z,7.15
2023-04-23T06:10:46.694Z,6.65
2023-04-23T06:11:23.113Z,18.13
2023-04-23T06:11:56.703Z,16.58
2023-04-23T06:12:32.361Z,9.05
2023-04-23T06:13:07.006Z,7.60
2023-04-23T06:13:43.683Z,6.45
2023-04-23T06:14:18.725Z,6.07
2023-04-23T06:14:51.751Z,5.38
2023-04-23T06:15:28.610Z,7.75
2023-04-23T06:16:03.360Z,5.53
2023-04-23T06:16:38.291Z,3.75
2023-04-23T06:17:14.769Z,9.00
2023-04-23T06:17:48.487Z,6.20
2023-04-23T06:18:24.533Z,9.30
2023-04-23T06:18:58.589Z,8.63
2023-04-23T06:19:32.197Z,12.10
2023-04-23T06:20:07.150Z,4.53
2023-04-23T06:20:41.268Z,5.00
2023-04-23T06:21:17.061Z,3.97
2023-04-23T06:21:53.349Z,3.03
2023-04-23T06:22:26.728Z,7.55
2023-04-23T06:23:05.241Z,9.13
2023-04-23T06:23:39.471Z,5.47
2023-04-23T06:24:13.150Z,9.75
2023-04-23T06:24:47.320Z,7.78
2023-04-23T06:25:22.263Z,4.05
2023-04-23T06:25:55.281Z,5.40
2023-04-23T06:26:32.166Z,7.13
2023-04-23T06:27:12.580Z,4.03
2023-04-23T06:27:50.460Z,5.93
2023-04-23T06:28:29.231Z,3.63
2023-04-23T06:29:25.239Z,7.88
2023-04-23T06:30:12.157Z,4.28
2023-04-23T06:30:45.303Z,3.97
2023-04-23T06:31:20.000Z,6.07
2023-04-23T06:31:56.854Z,4.88
2023-04-23T06:32:31.167Z,4.38
2023-04-23T06:33:05.830Z,5.47
2023-04-23T06:33:40.600Z,5.10
2023-04-23T06:34:14.211Z,6.97
2023-04-23T06:35:00.216Z,4.72
2023-04-23T06:35:36.894Z,14.02
2023-04-23T06:36:11.180Z,7.28
2023-04-23T06:36:45.828Z,8.75
2023-04-23T06:37:21.692Z,5.13
2023-04-23T06:37:57.066Z,4.35
2023-04-23T06:38:30.446Z,10.18
2023-04-23T06:39:05.911Z,4.15
2023-04-23T06:39:40.498Z,7.50
2023-04-23T06:40:13.629Z,6.93
2023-04-23T06:40:48.240Z,7.50
2023-04-23T06:41:22.234Z,4.47
2023-04-23T06:42:09.432Z,5.03
2023-04-23T06:42:56.554Z,4.38
2023-04-23T06:43:50.424Z,6.78
2023-04-23T06:44:39.601Z,6.45
2023-04-23T06:45:16.080Z,5.65
2023-04-23T06:45:50.308Z,3.90
2023-04-23T06:46:23.145Z,6.75
2023-04-23T06:46:58.531Z,6.50
2023-04-23T06:47:32.923Z,5.70
2023-04-23T06:48:07.358Z,9.27
2023-04-23T06:48:41.685Z,5.15
2023-04-23T06:49:16.762Z,6.45
2023-04-23T06:49:50.422Z,5.45
2023-04-23T06:50:26.096Z,8.50
2023-04-23T06:51:36.816Z,6.47
2023-04-23T06:52:10.478Z,6.72
2023-04-23T06:52:45.166Z,7.60
2023-04-23T06:53:21.231Z,8.75
2023-04-23T06:53:55.803Z,5.60
2023-04-23T06:54:29.812Z,4.25
2023-04-23T06:55:03.926Z,4.95
2023-04-23T06:55:37.614Z,8.38
2023-04-23T06:56:11.812Z,5.10
2023-04-23T06:56:48.624Z,5.88
2023-04-23T06:57:23.106Z,5.05
2023-04-23T06:57:57.959Z,6.13
2023-04-23T06:58:32.934Z,9.00
2023-04-23T06:59:15.234Z,6.60
2023-04-23T07:00:32.184Z,14.45
2023-04-23T07:01:08.450Z,6.57
2023-04-23T07:01:44.007Z,4.60
2023-04-23T07:02:19.284Z,11.57
2023-04-23T07:02:53.839Z,6.35
2023-04-23T07:03:28.922Z,5.57
2023-04-23T07:04:03.122Z,6.97
2023-04-23T07:04:37.055Z,6.65
2023-04-23T07:05:12.067Z,7.97
2023-04-23T07:05:46.176Z,7.05
2023-04-23T07:06:20.650Z,4.65
2023-04-23T07:06:55.463Z,6.25
2023-04-23T07:07:30.561Z,10.93
2023-04-23T07:08:06.390Z,5.78
2023-04-23T07:08:40.960Z,6.80
2023-04-23T07:09:15.004Z,6.43
2023-04-23T07:09:49.184Z,5.90
2023-04-23T07:10:23.520Z,5.72
2023-04-23T07:10:58.386Z,12.52
2023-04-23T07:11:31.994Z,4.63
2023-04-23T07:12:07.540Z,6.18
2023-04-23T07:12:42.656Z,5.43
2023-04-23T07:13:17.136Z,8.43
2023-04-23T07:13:51.625Z,6.05
2023-04-23T07:14:29.352Z,4.68
2023-04-23T07:15:02.458Z,4.95
2023-04-23T07:15:38.140Z,5.47
2023-04-23T07:16:12.359Z,7.25
2023-04-23T07:16:45.304Z,4.97
2023-04-23T07:17:20.833Z,4.03
2023-04-23T07:17:57.523Z,3.85
2023-04-23T07:18:32.197Z,13.80
2023-04-23T07:19:07.007Z,3.90
2023-04-23T07:19:41.459Z,4.50
2023-04-23T07:20:16.217Z,4.10
2023-04-23T07:20:50.127Z,5.00
2023-04-23T07:21:26.134Z,3.67
2023-04-23T07:22:01.694Z,5.80
2023-04-23T07:22:34.994Z,4.47
2023-04-23T07:23:09.893Z,6.25
2023-04-23T07:23:44.132Z,5.30
2023-04-23T07:24:18.299Z,5.53
2023-04-23T07:24:53.477Z,7.45
2023-04-23T07:25:27.895Z,3.92
2023-04-23T07:26:00.973Z,4.07
2023-04-23T07:26:35.988Z,3.97
2023-04-23T07:27:10.481Z,5.68
2023-04-23T07:27:46.017Z,4.15
2023-04-23T07:28:22.502Z,4.47
2023-04-23T07:28:56.695Z,5.25
2023-04-23T07:29:31.163Z,7.65
2023-04-23T07:30:07.822Z,5.25
2023-04-23T07:30:40.836Z,5.68
2023-04-23T07:31:16.119Z,5.60
2023-04-23T07:31:51.468Z,3.72
2023-04-23T07:32:28.288Z,5.18
2023-04-23T07:33:03.417Z,8.05
2023-04-23T07:33:36.878Z,6.25
2023-04-23T07:34:10.392Z,4.97
2023-04-23T07:34:45.182Z,7.53
2023-04-23T07:35:19.860Z,8.43
2023-04-23T07:35:55.352Z,8.70
2023-04-23T07:36:29.908Z,4.90
2023-04-23T07:37:04.767Z,5.90